Time;durP1;ratioP1;P1;durP2;ratioP2;P2;SDS_P1;SDS_P2;PMS_P1;PMS_P2;Temp;Humidity;BMP_temperature;BMP_pressure;BME280_temperature;BME280_humidity;BME280_pressure;Samples;Min_cycle;Max_cycle;Signal;HPM_P1;HPM_P2
2021/05/13 00:06:46;;;;;;;16.8;11.6;;;;;;;14.86;100;97245.02;;;;
2021/05/13 00:16:45;;;;;;;15.1;10.8;;;;;;;14.89;100;97246.23;;;;
2021/05/13 00:26:47;;;;;;;13.5;10.6;;;;;;;14.87;100;97249.3;;;;
2021/05/13 00:36:43;;;;;;;15.4;13.1;;;;;;;14.92;100;97240.07;;;;
2021/05/13 00:46:42;;;;;;;14.3;12.8;;;;;;;14.88;100;97228.39;;;;
2021/05/13 00:56:41;;;;;;;13.7;10.6;;;;;;;14.87;100;97213.25;;;;
2021/05/13 01:06:40;;;;;;;16.1;12.9;;;;;;;14.99;100;97211.07;;;;
2021/05/13 01:16:47;;;;;;;18;13.5;;;;;;;15.02;100;97215.78;;;;
2021/05/13 01:26:38;;;;;;;15.7;13;;;;;;;15.02;100;97196.8;;;;
2021/05/13 01:36:38;;;;;;;14.6;12.4;;;;;;;15.17;100;97188.81;;;;
2021/05/13 01:46:37;;;;;;;17.7;12.9;;;;;;;15.29;100;97172.26;;;;
2021/05/13 01:56:36;;;;;;;13;11.7;;;;;;;15.18;100;97166.72;;;;
2021/05/13 02:06:35;;;;;;;13.8;12.4;;;;;;;15.09;100;97155.39;;;;
2021/05/13 02:16:34;;;;;;;16.1;12.9;;;;;;;15.13;100;97150;;;;
2021/05/13 02:26:33;;;;;;;15;13.3;;;;;;;15.23;100;97149.33;;;;
2021/05/13 02:36:32;;;;;;;17.3;10.7;;;;;;;15.08;100;97140.25;;;;
2021/05/13 02:46:31;;;;;;;14.2;7.9;;;;;;;14.69;100;97142.51;;;;
2021/05/13 02:56:30;;;;;;;14.9;6.5;;;;;;;14.53;100;97136.51;;;;
2021/05/13 03:06:29;;;;;;;9;5.1;;;;;;;14.34;100;97126.57;;;;
2021/05/13 03:16:29;;;;;;;12.8;5.8;;;;;;;14.21;100;97127.92;;;;
2021/05/13 03:26:39;;;;;;;11.5;5.4;;;;;;;14.28;100;97113.68;;;;
2021/05/13 03:36:26;;;;;;;9.7;6;;;;;;;14.2;100;97120.14;;;;
2021/05/13 03:46:25;;;;;;;10.7;7.1;;;;;;;13.98;100;97108.25;;;;
2021/05/13 03:56:25;;;;;;;9.8;5.2;;;;;;;13.83;100;97107.25;;;;
2021/05/13 04:06:24;;;;;;;10.3;4.9;;;;;;;13.86;100;97105.73;;;;
2021/05/13 04:16:27;;;;;;;10.2;6.3;;;;;;;13.75;100;97093.95;;;;
2021/05/13 04:26:21;;;;;;;10.1;6;;;;;;;13.99;100;97094.32;;;;
2021/05/13 04:36:20;;;;;;;10.7;7.5;;;;;;;14.02;100;97081.99;;;;
2021/05/13 04:46:22;;;;;;;15;8.4;;;;;;;14.02;100;97087.41;;;;
2021/05/13 04:56:19;;;;;;;16.3;9.2;;;;;;;14.02;100;97080.04;;;;
2021/05/13 05:06:17;;;;;;;14.7;8.2;;;;;;;14.42;100;97082.16;;;;
2021/05/13 05:16:17;;;;;;;12;7.1;;;;;;;14.7;100;97075.5;;;;
2021/05/13 05:26:15;;;;;;;13.3;7.1;;;;;;;14.83;100;97055.1;;;;
2021/05/13 05:36:15;;;;;;;12.9;7.3;;;;;;;15.2;97.04883;97068.66;;;;
2021/05/13 05:46:14;;;;;;;9.8;6.3;;;;;;;15.14;97.28613;97065.48;;;;
2021/05/13 05:56:13;;;;;;;11.1;5.9;;;;;;;16.01;93.0459;97070.06;;;;
2021/05/13 06:06:12;;;;;;;10.5;7.5;;;;;;;15.97;94.96875;97054.88;;;;
2021/05/13 06:16:12;;;;;;;12.2;7.7;;;;;;;16.19;92.91016;97055.78;;;;
2021/05/13 06:26:11;;;;;;;17.9;8.6;;;;;;;16.43;91.72266;97064.06;;;;
2021/05/13 06:36:11;;;;;;;14.1;9.6;;;;;;;17.19;89.40137;97068.55;;;;
2021/05/13 06:46:10;;;;;;;24.1;12.1;;;;;;;17.44;91.50879;97067.42;;;;
2021/05/13 06:56:09;;;;;;;14.4;9.6;;;;;;;17.55;90.29785;97072.88;;;;
2021/05/13 07:06:09;;;;;;;20;11.4;;;;;;;17.03;94.17188;97067;;;;
2021/05/13 07:16:09;;;;;;;18;10.2;;;;;;;17.56;93.93945;97047.22;;;;
2021/05/13 07:26:08;;;;;;;16.9;10.3;;;;;;;17.19;93.94043;97035.89;;;;
2021/05/13 07:36:08;;;;;;;18.6;9.8;;;;;;;17.58;95.68848;97033.98;;;;
2021/05/13 07:46:07;;;;;;;20.4;12;;;;;;;17.94;93.2334;97024.59;;;;
2021/05/13 07:56:07;;;;;;;18.5;13.5;;;;;;;18.16;92.93555;97019.05;;;;
2021/05/13 08:06:06;;;;;;;23.6;14.1;;;;;;;18.48;89.89063;97011.52;;;;
2021/05/13 08:16:06;;;;;;;13.3;11;;;;;;;18.81;89.77441;97010.97;;;;
2021/05/13 08:26:05;;;;;;;16.5;11.7;;;;;;;18.92;88.23926;97011.69;;;;
2021/05/13 08:36:05;;;;;;;16.1;12;;;;;;;19.69;89.49316;97004.06;;;;
2021/05/13 08:46:05;;;;;;;22;14.2;;;;;;;20.17;88.43848;96995.73;;;;
2021/05/13 08:56:05;;;;;;;24;14.5;;;;;;;20.3;87.51074;96988.59;;;;
2021/05/13 09:06:05;;;;;;;21.8;12.4;;;;;;;21.11;81.94824;96991.38;;;;
2021/05/13 09:16:05;;;;;;;19;12;;;;;;;21.56;82.4707;96990.63;;;;
2021/05/13 09:26:05;;;;;;;20;13.7;;;;;;;21.83;84.93457;96982.31;;;;
2021/05/13 09:36:05;;;;;;;18.4;16;;;;;;;21.9;80.09375;96973.98;;;;
2021/05/13 09:46:05;;;;;;;21.3;14.6;;;;;;;21.47;80.56055;96973.19;;;;
2021/05/13 09:56:05;;;;;;;17.5;14.7;;;;;;;21.78;81.67871;96951.86;;;;
2021/05/13 10:06:06;;;;;;;28.1;17.8;;;;;;;22.39;81.62793;96942.02;;;;
2021/05/13 10:16:06;;;;;;;25;18;;;;;;;22.87;82.53711;96937.86;;;;
2021/05/13 10:26:06;;;;;;;21.9;17.5;;;;;;;22.21;81.70996;96927.14;;;;
2021/05/13 10:36:13;;;;;;;20.3;17.5;;;;;;;23.17;83.87891;96921.02;;;;
2021/05/13 10:46:08;;;;;;;19.3;17;;;;;;;22.61;81.5166;96919.59;;;;
2021/05/13 10:56:07;;;;;;;18.4;13.2;;;;;;;22.21;79.04785;96913.42;;;;
2021/05/13 11:06:07;;;;;;;21.1;15.6;;;;;;;21.52;83.13281;96906.9;;;;
2021/05/13 11:16:08;;;;;;;19;13.7;;;;;;;21.73;82.19043;96906.5;;;;
2021/05/13 11:26:11;;;;;;;17.2;14.1;;;;;;;22.33;80.14648;96896.28;;;;
2021/05/13 11:36:08;;;;;;;20.3;14.3;;;;;;;22.51;81.00293;96886.47;;;;
2021/05/13 11:46:08;;;;;;;18.6;14.1;;;;;;;23;79.54785;96884.55;;;;
2021/05/13 11:56:09;;;;;;;22.8;12.6;;;;;;;22.85;78.97559;96894.33;;;;
2021/05/13 12:06:09;;;;;;;19.6;13.2;;;;;;;23.02;76.71973;96895.09;;;;
2021/05/13 12:16:10;;;;;;;14.5;12.2;;;;;;;22.64;82.00977;96883.81;;;;
2021/05/13 12:26:10;;;;;;;16.5;13.8;;;;;;;21.97;84.25684;96877.83;;;;
2021/05/13 12:36:10;;;;;;;21.9;15;;;;;;;20.44;91.48145;96876.18;;;;
2021/05/13 12:46:10;;;;;;;22.1;14.5;;;;;;;19.63;95.77246;96865.52;;;;
2021/05/13 12:56:10;;;;;;;19.2;15;;;;;;;19.14;99.51172;96869.53;;;;
2021/05/13 13:06:10;;;;;;;19;14.3;;;;;;;18.86;100;96874.06;;;;
2021/05/13 13:16:10;;;;;;;17.8;14.2;;;;;;;18.48;100;96888.75;;;;
2021/05/13 13:26:11;;;;;;;16;13.5;;;;;;;17.57;100;96894.26;;;;
2021/05/13 13:36:10;;;;;;;18.5;15.9;;;;;;;16.58;100;96894.36;;;;
2021/05/13 13:46:10;;;;;;;15.4;8.8;;;;;;;15.95;100;96902.33;;;;
2021/05/13 13:56:09;;;;;;;8.4;5.2;;;;;;;15.84;100;96863.48;;;;
2021/05/13 14:06:08;;;;;;;8;4.5;;;;;;;15.63;100;96893.27;;;;
2021/05/13 14:16:13;;;;;;;4.6;3.1;;;;;;;15.36;100;96909.02;;;;
2021/05/13 14:26:07;;;;;;;6.2;2.8;;;;;;;15.42;100;96886.55;;;;
2021/05/13 14:36:06;;;;;;;6.4;3.4;;;;;;;15.47;100;96877.28;;;;
2021/05/13 14:46:06;;;;;;;8;4.3;;;;;;;15.28;100;96882.97;;;;
2021/05/13 14:56:05;;;;;;;9.1;4.6;;;;;;;15.4;100;96909.81;;;;
2021/05/13 15:06:04;;;;;;;10.6;4.3;;;;;;;15.01;100;96923.91;;;;
2021/05/13 15:16:04;;;;;;;7;4.4;;;;;;;15.18;100;96903.47;;;;
2021/05/13 15:26:05;;;;;;;9.1;5.4;;;;;;;15.53;100;96903.71;;;;
2021/05/13 15:36:02;;;;;;;9.7;5;;;;;;;15.64;100;96900.27;;;;
2021/05/13 15:46:02;;;;;;;8.2;5;;;;;;;15.61;100;96896.38;;;;
2021/05/13 15:56:01;;;;;;;9.7;5.9;;;;;;;15.79;100;96893.75;;;;
2021/05/13 16:06:01;;;;;;;9.7;6;;;;;;;15.84;100;96885.99;;;;
2021/05/13 16:16:00;;;;;;;9.3;6.6;;;;;;;15.6;100;96881.23;;;;
2021/05/13 16:25:59;;;;;;;19.2;5.8;;;;;;;15.5;100;96899.05;;;;
2021/05/13 16:36:00;;;;;;;7.9;4.8;;;;;;;15.16;100;96900.38;;;;
2021/05/13 16:45:58;;;;;;;9.3;5.3;;;;;;;15.13;100;96917.41;;;;
2021/05/13 16:55:57;;;;;;;8.2;6.1;;;;;;;15.26;100;96912.44;;;;
2021/05/13 17:06:02;;;;;;;9.3;5.8;;;;;;;15.35;100;96902.02;;;;
2021/05/13 17:15:56;;;;;;;9.5;7.2;;;;;;;15.18;100;96899.98;;;;
2021/05/13 17:25:55;;;;;;;15.1;7.3;;;;;;;15.23;100;96922.13;;;;
2021/05/13 17:35:55;;;;;;;7.6;4.9;;;;;;;15.19;100;96923.25;;;;
2021/05/13 17:45:54;;;;;;;9.2;6.5;;;;;;;15.34;100;96927.63;;;;
2021/05/13 17:55:53;;;;;;;8.3;6.5;;;;;;;15.17;100;96952.72;;;;
2021/05/13 18:05:53;;;;;;;8.1;5.9;;;;;;;14.92;100;96944.38;;;;
2021/05/13 18:15:52;;;;;;;9.2;7.5;;;;;;;14.61;100;96946.41;;;;
2021/05/13 18:25:53;;;;;;;13.1;7.7;;;;;;;14.46;100;96949.38;;;;
2021/05/13 18:35:51;;;;;;;12.6;7.4;;;;;;;14.48;100;96955.98;;;;
2021/05/13 18:45:51;;;;;;;8.4;6.1;;;;;;;14.47;100;96956.36;;;;
2021/05/13 18:55:49;;;;;;;13.9;9.2;;;;;;;14.32;100;96974.38;;;;
2021/05/13 19:05:49;;;;;;;11.6;8.3;;;;;;;14.33;100;96989.48;;;;
2021/05/13 19:15:48;;;;;;;10.7;7.3;;;;;;;14.03;100;97007.69;;;;
2021/05/13 19:25:48;;;;;;;7.9;5.4;;;;;;;13.96;100;97013.02;;;;
2021/05/13 19:35:47;;;;;;;11.3;5.9;;;;;;;14.05;100;97010.83;;;;
2021/05/13 19:45:45;;;;;;;12.9;8.8;;;;;;;14.05;100;97017.03;;;;
2021/05/13 19:55:47;;;;;;;11.3;8.2;;;;;;;13.98;100;97030.48;;;;
2021/05/13 20:05:54;;;;;;;8.3;7.5;;;;;;;13.88;100;97027.63;;;;
2021/05/13 20:15:43;;;;;;;10.9;7.9;;;;;;;13.85;100;97018.28;;;;
2021/05/13 20:25:52;;;;;;;9.3;6.8;;;;;;;13.73;100;97013.11;;;;
2021/05/13 20:35:44;;;;;;;8.6;6.7;;;;;;;13.81;100;97032.94;;;;
2021/05/13 20:45:44;;;;;;;11.1;8.4;;;;;;;13.75;100;97046;;;;
2021/05/13 21:05:44;;;;;;;15.8;13.2;;;;;;;13.84;100;97038.41;;;;
2021/05/13 21:16:10;;;;;;;18.8;13.8;;;;;;;13.8;100;97048.41;;;;
2021/05/13 21:25:51;;;;;;;14.5;10.2;;;;;;;13.75;100;97039.8;;;;
2021/05/13 21:35:36;;;;;;;11.2;8.2;;;;;;;13.63;100;97045.44;;;;
2021/05/13 21:45:35;;;;;;;13.9;11.7;;;;;;;13.52;100;97043.36;;;;
2021/05/13 21:55:35;;;;;;;13;8.9;;;;;;;13.5;100;97036.75;;;;
2021/05/13 22:05:37;;;;;;;15.4;10;;;;;;;13.46;100;97036.7;;;;
2021/05/13 22:15:33;;;;;;;12.1;8.8;;;;;;;13.39;100;97027.69;;;;
2021/05/13 22:25:33;;;;;;;11.8;10;;;;;;;13.43;100;97029.28;;;;
2021/05/13 22:35:31;;;;;;;12.4;8.8;;;;;;;13.41;100;97039.7;;;;
2021/05/13 22:45:30;;;;;;;10.3;8;;;;;;;13.38;100;97051.25;;;;
2021/05/13 22:55:36;;;;;;;11.9;8.1;;;;;;;13.37;100;97043.48;;;;
2021/05/13 23:05:29;;;;;;;11.3;6.4;;;;;;;13.36;100;97040;;;;
2021/05/13 23:15:28;;;;;;;8.9;6.6;;;;;;;13.3;100;97041.45;;;;
2021/05/13 23:25:27;;;;;;;12;6.8;;;;;;;13.16;100;97038.52;;;;
2021/05/13 23:35:26;;;;;;;8.7;6.4;;;;;;;13.13;100;97033.05;;;;
2021/05/13 23:45:25;;;;;;;9;6.2;;;;;;;13.01;100;97032.08;;;;
2021/05/13 23:55:27;;;;;;;10.4;7.1;;;;;;;12.99;100;97042.45;;;;
